Wetterdaten: Woche 02.04.12 - 08.04.12 (KW14)
Datum Zeit Temp. A. Feuchte A. Luftdruck Regen Wind Richtung Taupunkt Windchill Windben
02.04.2012 00:00 2,9 C 61 % 1013,7 hPa 0,0 l/m 1,8 km/h N -3,9 C 2,9 C 6,0 km/h
02.04.2012 01:00 2,9 C 60 % 1013,4 hPa 0,0 l/m 0,7 km/h N -4,1 C 2,9 C 5,2 km/h
02.04.2012 02:00 2,5 C 61 % 1012,8 hPa 0,0 l/m 0,6 km/h N -4,2 C 2,5 C 4,0 km/h
02.04.2012 03:00 3,3 C 59 % 1012,3 hPa 0,0 l/m 2,5 km/h N -4,0 C 3,3 C 7,6 km/h
02.04.2012 04:00 4,0 C 55 % 1011,9 hPa 0,0 l/m 1,3 km/h N -4,1 C 4,0 C 6,0 km/h
02.04.2012 05:00 3,3 C 57 % 1011,6 hPa 0,0 l/m 0,5 km/h N -4,3 C 3,3 C 4,0 km/h
02.04.2012 06:00 2,7 C 59 % 1011,4 hPa 0,0 l/m 1,1 km/h N -4,6 C 2,7 C 4,8 km/h
02.04.2012 07:00 3,4 C 56 % 1011,3 hPa 0,0 l/m 1,3 km/h N -4,4 C 3,4 C 4,8 km/h
02.04.2012 08:00 5,7 C 51 % 1011,3 hPa 0,0 l/m 2,0 km/h N -3,7 C 5,7 C 8,8 km/h
02.04.2012 09:00 9,5 C 41 % 1011,0 hPa 0,0 l/m 8,1 km/h N -3,1 C 8,4 C 21,7 km/h
02.04.2012 10:00 11,3 C 38 % 1010,9 hPa 0,0 l/m 10,7 km/h N -2,6 C 8,7 C 27,0 km/h
02.04.2012 11:00 13,4 C 34 % 1010,5 hPa 0,0 l/m 9,3 km/h N -2,1 C 11,7 C 24,1 km/h
02.04.2012 12:00 14,5 C 34 % 1010,1 hPa 0,0 l/m 11,1 km/h N -1,4 C 12,1 C 27,0 km/h
02.04.2012 13:00 15,3 C 34 % 1009,6 hPa 0,0 l/m 9,6 km/h N -0,5 C 13,6 C 24,5 km/h
02.04.2012 14:00 16,1 C 35 % 1008,9 hPa 0,0 l/m 10,8 km/h N 0,7 C 14,1 C 23,3 km/h
02.04.2012 15:00 16,5 C 37 % 1008,1 hPa 0,0 l/m 9,0 km/h N 1,7 C 15,2 C 21,3 km/h
02.04.2012 16:00 17,1 C 35 % 1007,4 hPa 0,0 l/m 5,3 km/h N 1,4 C 16,9 C 14,1 km/h
02.04.2012 17:00 16,7 C 36 % 1007,0 hPa 0,0 l/m 3,0 km/h N 1,5 C 16,7 C 11,7 km/h
02.04.2012 18:00 16,3 C 37 % 1006,8 hPa 0,0 l/m 1,6 km/h N 1,6 C 16,3 C 5,6 km/h
02.04.2012 19:00 14,4 C 44 % 1006,8 hPa 0,0 l/m 0,0 km/h N 2,1 C 14,4 C 0,0 km/h
02.04.2012 20:00 10,8 C 54 % 1007,1 hPa 0,0 l/m 0,0 km/h N 1,7 C 10,8 C 0,4 km/h
02.04.2012 21:00 8,0 C 62 % 1007,3 hPa 0,0 l/m 0,0 km/h N 1,2 C 8,0 C 0,0 km/h
02.04.2012 22:00 6,5 C 67 % 1007,2 hPa 0,0 l/m 0,0 km/h N 0,7 C 6,5 C 0,8 km/h
02.04.2012 23:00 6,2 C 69 % 1007,2 hPa 0,0 l/m 0,1 km/h N 0,9 C 6,2 C 0,8 km/h
03.04.2012 00:00 7,3 C 66 % 1006,9 hPa 0,0 l/m 0,4 km/h N 1,3 C 7,3 C 3,2 km/h
03.04.2012 01:00 7,1 C 66 % 1006,6 hPa 0,0 l/m 0,0 km/h N 1,1 C 7,1 C 0,0 km/h
03.04.2012 02:00 5,1 C 73 % 1006,5 hPa 0,0 l/m 0,1 km/h N 0,6 C 5,1 C 1,2 km/h
03.04.2012 03:00 4,4 C 75 % 1006,3 hPa 0,0 l/m 0,2 km/h N 0,3 C 4,4 C 1,2 km/h
03.04.2012 04:00 3,1 C 77 % 1006,1 hPa 0,0 l/m 0,0 km/h N -0,6 C 3,1 C 0,0 km/h
03.04.2012 05:00 2,3 C 80 % 1006,1 hPa 0,0 l/m 0,0 km/h N -0,9 C 2,3 C 0,0 km/h
03.04.2012 06:00 2,2 C 82 % 1006,3 hPa 0,0 l/m 0,2 km/h N -0,6 C 2,2 C 2,0 km/h
03.04.2012 07:00 3,0 C 82 % 1006,8 hPa 0,0 l/m 0,3 km/h N 0,2 C 3,0 C 2,0 km/h
03.04.2012 08:00 5,9 C 77 % 1007,2 hPa 0,0 l/m 0,5 km/h N 2,2 C 5,9 C 4,8 km/h
03.04.2012 09:00 9,1 C 64 % 1007,3 hPa 0,0 l/m 1,2 km/h N 2,5 C 9,1 C 6,0 km/h
03.04.2012 10:00 11,2 C 60 % 1007,7 hPa 0,0 l/m 2,9 km/h N 3,7 C 11,2 C 8,9 km/h
03.04.2012 11:00 12,2 C 57 % 1007,8 hPa 0,0 l/m 1,9 km/h N 3,9 C 12,2 C 8,9 km/h
03.04.2012 12:00 13,2 C 55 % 1007,5 hPa 0,0 l/m 1,5 km/h N 4,2 C 13,2 C 6,8 km/h
03.04.2012 13:00 14,5 C 52 % 1007,3 hPa 0,0 l/m 1,6 km/h N 4,6 C 14,5 C 6,8 km/h
03.04.2012 14:00 16,0 C 47 % 1006,8 hPa 0,0 l/m 1,4 km/h N 4,7 C 16,0 C 8,1 km/h
03.04.2012 15:00 17,5 C 47 % 1006,1 hPa 0,0 l/m 2,5 km/h N 5,9 C 17,5 C 10,1 km/h
03.04.2012 16:00 18,4 C 44 % 1005,6 hPa 0,0 l/m 2,5 km/h N 5,7 C 18,4 C 10,9 km/h
03.04.2012 17:00 18,6 C 40 % 1005,1 hPa 0,0 l/m 2,3 km/h N 4,8 C 18,6 C 8,9 km/h
03.04.2012 18:00 18,1 C 43 % 1004,7 hPa 0,0 l/m 0,3 km/h N 5,2 C 18,1 C 4,0 km/h
03.04.2012 19:00 16,1 C 49 % 1004,5 hPa 0,0 l/m 0,0 km/h N 5,3 C 16,1 C 0,0 km/h
03.04.2012 20:00 12,7 C 60 % 1004,6 hPa 0,0 l/m 0,0 km/h N 5,0 C 12,7 C 0,8 km/h
03.04.2012 21:00 10,3 C 68 % 1004,9 hPa 0,0 l/m 0,0 km/h N 4,6 C 10,3 C 0,4 km/h
03.04.2012 22:00 8,9 C 74 % 1004,6 hPa 0,0 l/m 0,0 km/h N 4,6 C 8,9 C 0,4 km/h
03.04.2012 23:00 8,4 C 75 % 1004,4 hPa 0,0 l/m 0,0 km/h N 4,2 C 8,4 C 0,0 km/h
04.04.2012 00:00 7,1 C 78 % 1004,2 hPa 0,0 l/m 0,0 km/h N 3,5 C 7,1 C 0,0 km/h
04.04.2012 01:00 5,8 C 80 % 1003,9 hPa 0,0 l/m 0,0 km/h N 2,7 C 5,8 C 0,4 km/h
04.04.2012 02:00 5,2 C 82 % 1003,5 hPa 0,0 l/m 0,0 km/h N 2,4 C 5,2 C 0,0 km/h
04.04.2012 03:00 5,2 C 82 % 1003,3 hPa 0,0 l/m 0,0 km/h N 2,3 C 5,2 C 1,2 km/h
04.04.2012 04:00 5,4 C 81 % 1003,2 hPa 0,0 l/m 0,4 km/h N 2,4 C 5,4 C 2,4 km/h
04.04.2012 05:00 5,4 C 82 % 1003,5 hPa 0,0 l/m 0,0 km/h N 2,5 C 5,4 C 0,8 km/h
04.04.2012 06:00 4,5 C 82 % 1003,8 hPa 0,0 l/m 0,0 km/h N 1,7 C 4,5 C 0,8 km/h
04.04.2012 07:00 4,9 C 80 % 1004,5 hPa 0,0 l/m 0,0 km/h N 1,8 C 4,9 C 0,0 km/h
04.04.2012 08:00 8,0 C 80 % 1005,0 hPa 0,0 l/m 0,1 km/h N 4,8 C 8,0 C 1,2 km/h
04.04.2012 09:00 12,3 C 72 % 1005,5 hPa 0,0 l/m 0,6 km/h N 7,3 C 12,3 C 3,6 km/h
04.04.2012 10:00 15,6 C 59 % 1006,1 hPa 0,0 l/m 2,3 km/h N 7,5 C 15,6 C 8,0 km/h
04.04.2012 11:00 18,7 C 45 % 1006,2 hPa 0,0 l/m 9,4 km/h N 6,5 C 17,5 C 23,7 km/h
04.04.2012 12:00 19,7 C 45 % 1006,4 hPa 0,0 l/m 9,4 km/h N 7,4 C 18,5 C 23,3 km/h
04.04.2012 13:00 20,1 C 45 % 1006,4 hPa 0,0 l/m 11,2 km/h N 7,7 C 18,4 C 24,5 km/h
04.04.2012 14:00 20,7 C 40 % 1006,0 hPa 0,0 l/m 7,9 km/h N 6,5 C 20,1 C 18,5 km/h
04.04.2012 15:00 21,4 C 39 % 1005,7 hPa 0,0 l/m 2,5 km/h N 6,8 C 21,4 C 9,3 km/h
04.04.2012 16:00 21,9 C 38 % 1005,6 hPa 0,0 l/m 1,1 km/h N 6,9 C 21,9 C 6,4 km/h
04.04.2012 17:00 21,6 C 39 % 1005,4 hPa 0,0 l/m 2,0 km/h N 7,0 C 21,6 C 7,7 km/h
04.04.2012 18:00 20,7 C 42 % 1005,3 hPa 0,0 l/m 0,1 km/h N 7,1 C 20,7 C 1,6 km/h
04.04.2012 19:00 18,7 C 47 % 1005,7 hPa 0,0 l/m 0,0 km/h N 7,2 C 18,7 C 0,0 km/h
04.04.2012 20:00 16,0 C 59 % 1006,2 hPa 0,0 l/m 0,0 km/h N 8,0 C 16,0 C 0,0 km/h
04.04.2012 21:00 14,9 C 64 % 1006,6 hPa 0,0 l/m 0,0 km/h N 8,0 C 14,9 C 0,8 km/h
04.04.2012 22:00 13,6 C 66 % 1006,7 hPa 0,0 l/m 0,1 km/h N 7,3 C 13,6 C 1,2 km/h
04.04.2012 23:00 13,1 C 67 % 1007,0 hPa 0,0 l/m 1,4 km/h N 7,1 C 13,1 C 5,6 km/h
05.04.2012 00:00 15,0 C 58 % 1007,5 hPa 0,0 l/m 3,7 km/h N 6,8 C 15,0 C 10,1 km/h
05.04.2012 01:00 13,9 C 62 % 1007,7 hPa 0,0 l/m 1,5 km/h N 6,7 C 13,9 C 6,8 km/h
05.04.2012 02:00 12,3 C 66 % 1007,8 hPa 0,0 l/m 0,3 km/h N 6,2 C 12,3 C 4,0 km/h
05.04.2012 03:00 11,0 C 72 % 1008,3 hPa 0,0 l/m 1,4 km/h N 6,1 C 11,0 C 8,9 km/h
05.04.2012 04:00 10,6 C 73 % 1008,4 hPa 0,0 l/m 2,6 km/h N 6,0 C 10,6 C 8,0 km/h
05.04.2012 05:00 9,7 C 75 % 1008,6 hPa 0,0 l/m 1,7 km/h N 5,5 C 9,7 C 6,8 km/h
05.04.2012 06:00 9,6 C 75 % 1009,0 hPa 0,0 l/m 2,8 km/h N 5,4 C 9,6 C 9,7 km/h
05.04.2012 07:00 9,8 C 76 % 1009,8 hPa 0,0 l/m 5,3 km/h N 5,7 C 9,8 C 14,1 km/h
05.04.2012 08:00 10,6 C 74 % 1010,1 hPa 0,0 l/m 6,2 km/h N 6,0 C 10,3 C 15,7 km/h
05.04.2012 09:00 12,1 C 68 % 1010,2 hPa 0,0 l/m 5,0 km/h N 6,4 C 12,1 C 11,7 km/h
05.04.2012 10:00 13,5 C 64 % 1010,5 hPa 0,0 l/m 4,3 km/h N 6,8 C 13,5 C 12,1 km/h
05.04.2012 11:00 14,8 C 61 % 1010,2 hPa 0,0 l/m 3,6 km/h N 7,4 C 14,8 C 10,9 km/h
05.04.2012 12:00 16,5 C 60 % 1009,7 hPa 0,0 l/m 3,9 km/h N 8,7 C 16,5 C 11,3 km/h
05.04.2012 13:00 17,5 C 57 % 1009,3 hPa 0,0 l/m 3,8 km/h N 8,9 C 17,5 C 11,3 km/h
05.04.2012 14:00 17,8 C 57 % 1008,6 hPa 0,0 l/m 3,5 km/h N 9,0 C 17,8 C 10,5 km/h
05.04.2012 15:00 18,1 C 55 % 1008,3 hPa 0,0 l/m 2,5 km/h N 8,8 C 18,1 C 8,1 km/h
05.04.2012 16:00 17,2 C 58 % 1008,1 hPa 0,0 l/m 5,3 km/h N 8,8 C 17,2 C 13,3 km/h
05.04.2012 17:00 15,2 C 69 % 1008,3 hPa 1,8 l/m 4,8 km/h N 9,4 C 15,1 C 15,3 km/h
05.04.2012 18:00 14,1 C 70 % 1008,3 hPa 0,0 l/m 5,4 km/h N 8,6 C 14,1 C 14,1 km/h
05.04.2012 19:00 13,2 C 71 % 1008,3 hPa 0,0 l/m 3,1 km/h N 8,1 C 13,2 C 10,1 km/h
05.04.2012 20:00 11,8 C 71 % 1008,8 hPa 0,0 l/m 5,6 km/h N 6,7 C 11,7 C 13,7 km/h
05.04.2012 21:00 10,6 C 73 % 1009,5 hPa 0,0 l/m 5,3 km/h N 6,0 C 10,6 C 12,1 km/h
05.04.2012 22:00 9,8 C 77 % 1010,3 hPa 0,0 l/m 5,1 km/h N 6,0 C 9,8 C 13,7 km/h
05.04.2012 23:00 8,6 C 80 % 1010,4 hPa 0,3 l/m 5,7 km/h N 5,3 C 8,5 C 14,5 km/h
06.04.2012 00:00 7,7 C 81 % 1010,2 hPa 0,0 l/m 6,8 km/h N 4,7 C 7,4 C 16,5 km/h
06.04.2012 01:00 7,5 C 81 % 1010,3 hPa 0,0 l/m 6,3 km/h N 4,4 C 7,3 C 16,1 km/h
06.04.2012 02:00 7,4 C 80 % 1010,2 hPa 0,0 l/m 4,7 km/h N 4,2 C 7,4 C 11,7 km/h
06.04.2012 03:00 7,5 C 80 % 1009,7 hPa 0,0 l/m 3,7 km/h N 4,3 C 7,5 C 10,0 km/h
06.04.2012 04:00 7,4 C 80 % 1009,0 hPa 0,0 l/m 5,6 km/h N 4,2 C 7,4 C 14,1 km/h
06.04.2012 05:00 7,3 C 79 % 1008,8 hPa 0,0 l/m 6,1 km/h N 3,9 C 7,2 C 17,7 km/h
06.04.2012 06:00 7,2 C 79 % 1008,5 hPa 0,0 l/m 6,8 km/h N 3,8 C 6,6 C 16,9 km/h
06.04.2012 07:00 7,2 C 79 % 1008,8 hPa 0,0 l/m 6,4 km/h N 3,8 C 6,8 C 18,5 km/h
06.04.2012 08:00 7,4 C 79 % 1009,0 hPa 0,0 l/m 5,1 km/h N 4,0 C 7,4 C 12,1 km/h
06.04.2012 09:00 7,9 C 78 % 1009,1 hPa 0,0 l/m 7,2 km/h N 4,2 C 7,2 C 15,7 km/h
06.04.2012 10:00 9,0 C 75 % 1009,0 hPa 0,0 l/m 7,4 km/h N 4,9 C 8,3 C 18,1 km/h
06.04.2012 11:00 9,8 C 73 % 1008,8 hPa 0,0 l/m 8,2 km/h N 5,1 C 8,4 C 18,5 km/h
06.04.2012 12:00 9,9 C 72 % 1008,4 hPa 0,0 l/m 7,1 km/h N 5,2 C 9,4 C 16,5 km/h
06.04.2012 13:00 10,3 C 71 % 1008,2 hPa 0,0 l/m 8,0 km/h N 5,3 C 9,2 C 17,3 km/h
06.04.2012 14:00 9,9 C 75 % 1007,8 hPa 0,0 l/m 7,1 km/h N 5,7 C 9,3 C 16,5 km/h
06.04.2012 15:00 9,7 C 78 % 1007,3 hPa 0,3 l/m 9,2 km/h N 6,0 C 7,8 C 20,5 km/h
06.04.2012 16:00 9,7 C 78 % 1006,9 hPa 0,0 l/m 8,7 km/h N 6,0 C 8,1 C 19,7 km/h
06.04.2012 17:00 9,4 C 81 % 1006,7 hPa 0,3 l/m 4,8 km/h N 6,3 C 9,4 C 11,7 km/h
06.04.2012 18:00 9,6 C 81 % 1006,3 hPa 0,0 l/m 4,2 km/h N 6,5 C 9,6 C 10,9 km/h
06.04.2012 19:00 9,9 C 79 % 1006,3 hPa 0,0 l/m 4,2 km/h N 6,4 C 9,9 C 13,3 km/h
06.04.2012 20:00 9,9 C 78 % 1006,4 hPa 0,0 l/m 2,5 km/h N 6,2 C 9,9 C 8,0 km/h
06.04.2012 21:00 9,6 C 76 % 1006,6 hPa 0,0 l/m 9,0 km/h N 5,5 C 7,7 C 27,0 km/h
06.04.2012 22:00 9,4 C 74 % 1006,4 hPa 0,0 l/m 11,1 km/h N 5,0 C 6,3 C 28,6 km/h
06.04.2012 23:00 9,1 C 74 % 1006,4 hPa 0,0 l/m 5,3 km/h N 4,8 C 9,1 C 15,3 km/h
07.04.2012 00:00 8,6 C 76 % 1006,1 hPa 0,0 l/m 8,5 km/h N 4,7 C 7,1 C 22,9 km/h
07.04.2012 01:00 8,0 C 77 % 1005,9 hPa 0,0 l/m 3,3 km/h N 4,2 C 7,9 C 11,7 km/h
07.04.2012 02:00 6,4 C 79 % 1005,5 hPa 0,0 l/m 0,0 km/h N 3,1 C 6,4 C 0,8 km/h
07.04.2012 03:00 4,9 C 82 % 1005,0 hPa 0,0 l/m 0,2 km/h N 2,0 C 4,9 C 1,6 km/h
07.04.2012 04:00 4,6 C 82 % 1004,9 hPa 0,0 l/m 0,1 km/h N 1,8 C 4,6 C 1,2 km/h
07.04.2012 05:00 4,0 C 82 % 1004,5 hPa 0,0 l/m 0,0 km/h N 1,2 C 4,0 C 1,2 km/h
07.04.2012 06:00 4,9 C 80 % 1004,3 hPa 0,0 l/m 0,2 km/h N 1,8 C 4,9 C 1,6 km/h
07.04.2012 07:00 6,0 C 80 % 1004,1 hPa 0,0 l/m 0,0 km/h N 2,7 C 6,0 C 0,4 km/h
07.04.2012 08:00 7,3 C 80 % 1003,8 hPa 0,0 l/m 0,0 km/h N 4,0 C 7,3 C 1,2 km/h
07.04.2012 09:00 8,5 C 82 % 1003,4 hPa 0,0 l/m 0,8 km/h N 5,5 C 8,5 C 3,2 km/h
07.04.2012 10:00 9,4 C 80 % 1003,2 hPa 0,0 l/m 3,9 km/h N 6,2 C 9,4 C 10,1 km/h
07.04.2012 11:00 9,8 C 79 % 1002,8 hPa 0,0 l/m 3,7 km/h N 6,3 C 9,8 C 7,6 km/h
07.04.2012 12:00 10,1 C 78 % 1002,3 hPa 0,0 l/m 2,4 km/h N 6,4 C 10,1 C 6,0 km/h
07.04.2012 13:00 10,3 C 80 % 1001,8 hPa 0,0 l/m 3,3 km/h N 6,9 C 10,3 C 7,6 km/h
07.04.2012 14:00 10,3 C 82 % 1001,3 hPa 0,3 l/m 3,3 km/h N 7,3 C 10,3 C 8,0 km/h
07.04.2012 15:00 10,5 C 74 % 1000,7 hPa 0,0 l/m 4,9 km/h N 5,9 C 10,0 C 15,6 km/h
07.04.2012 16:00 10,6 C 65 % 1000,4 hPa 0,0 l/m 4,4 km/h N 4,2 C 10,5 C 13,7 km/h
07.04.2012 17:00 10,2 C 67 % 1000,3 hPa 0,0 l/m 5,9 km/h N 4,2 C 9,4 C 18,9 km/h
07.04.2012 18:00 9,1 C 70 % 1001,0 hPa 0,0 l/m 13,7 km/h N 3,8 C 4,7 C 37,0 km/h
07.04.2012 19:00 7,4 C 74 % 1002,2 hPa 0,0 l/m 14,2 km/h N 3,1 C 2,4 C 31,0 km/h
07.04.2012 20:00 6,1 C 79 % 1003,3 hPa 0,3 l/m 11,5 km/h N 2,7 C 2,5 C 24,9 km/h
07.04.2012 21:00 5,9 C 78 % 1003,5 hPa 0,0 l/m 8,4 km/h N 2,4 C 4,3 C 19,7 km/h
07.04.2012 22:00 5,6 C 77 % 1003,6 hPa 0,0 l/m 7,6 km/h N 1,8 C 4,6 C 18,9 km/h
07.04.2012 23:00 5,3 C 69 % 1004,0 hPa 0,0 l/m 7,3 km/h N 0,2 C 4,5 C 19,3 km/h
08.04.2012 00:00 4,8 C 68 % 1004,5 hPa 0,0 l/m 6,4 km/h N -0,6 C 4,3 C 15,7 km/h
08.04.2012 01:00 4,3 C 69 % 1004,8 hPa 0,0 l/m 7,7 km/h N -0,9 C 3,1 C 19,3 km/h
08.04.2012 02:00 3,8 C 71 % 1004,7 hPa 0,0 l/m 7,7 km/h N -1,1 C 2,6 C 20,1 km/h
08.04.2012 03:00 3,0 C 73 % 1004,7 hPa 0,0 l/m 7,2 km/h N -1,5 C 2,2 C 20,1 km/h
08.04.2012 04:00 2,5 C 73 % 1004,8 hPa 0,0 l/m 6,4 km/h N -1,8 C 2,0 C 18,9 km/h
08.04.2012 05:00 2,5 C 71 % 1005,0 hPa 0,0 l/m 7,2 km/h N -2,2 C 1,5 C 18,5 km/h
08.04.2012 06:00 2,0 C 71 % 1005,4 hPa 0,0 l/m 8,4 km/h N -2,7 C 0,1 C 20,5 km/h
08.04.2012 07:00 2,2 C 69 % 1006,2 hPa 0,0 l/m 9,0 km/h N -2,9 C -0,1 C 22,9 km/h
08.04.2012 08:00 2,3 C 66 % 1006,5 hPa 0,0 l/m 9,6 km/h N -3,3 C -0,5 C 22,1 km/h
08.04.2012 09:00 2,8 C 61 % 1007,2 hPa 0,0 l/m 12,2 km/h N -4,1 C -1,8 C 26,6 km/h
08.04.2012 10:00 3,0 C 58 % 1008,1 hPa 0,0 l/m 13,6 km/h N -4,6 C -2,6 C 31,0 km/h
08.04.2012 11:00 3,4 C 57 % 1008,6 hPa 0,0 l/m 11,0 km/h N -4,3 C -0,4 C 26,6 km/h
08.04.2012 12:00 3,8 C 59 % 1008,9 hPa 0,0 l/m 13,5 km/h N -3,6 C -1,5 C 30,6 km/h
08.04.2012 13:00 4,9 C 54 % 1009,1 hPa 0,0 l/m 13,6 km/h N -3,7 C -0,3 C 28,6 km/h
08.04.2012 14:00 5,0 C 49 % 1009,3 hPa 0,0 l/m 14,2 km/h N -4,7 C -0,5 C 31,0 km/h
08.04.2012 15:00 4,5 C 51 % 1009,6 hPa 0,0 l/m 14,5 km/h N -4,9 C -1,3 C 33,4 km/h
08.04.2012 16:00 3,8 C 58 % 1010,3 hPa 0,0 l/m 14,7 km/h N -3,9 C -2,3 C 32,6 km/h
08.04.2012 17:00 3,8 C 55 % 1011,0 hPa 0,0 l/m 15,8 km/h N -4,4 C -2,8 C 33,4 km/h
08.04.2012 18:00 3,1 C 55 % 1011,6 hPa 0,0 l/m 13,0 km/h N -5,2 C -2,0 C 31,0 km/h
08.04.2012 19:00 3,0 C 56 % 1012,3 hPa 0,0 l/m 12,3 km/h N -5,0 C -1,7 C 30,6 km/h
08.04.2012 20:00 2,4 C 58 % 1013,3 hPa 0,0 l/m 13,3 km/h N -5,1 C -3,1 C 31,4 km/h
08.04.2012 21:00 2,0 C 60 % 1013,9 hPa 0,0 l/m 12,6 km/h N -5,1 C -3,1 C 27,4 km/h
08.04.2012 22:00 1,8 C 60 % 1014,3 hPa 0,0 l/m 10,8 km/h N -5,2 C -2,1 C 27,4 km/h
08.04.2012 23:00 1,5 C 58 % 1014,8 hPa 0,0 l/m 10,7 km/h N -5,8 C -2,2 C 26,5 km/h
Min-Datum _ 08.04.12 02.04.12 07.04.12 - 02.04.12 - 08.04.12 08.04.12 02.04.12
_ Min-Zeit 23:45 11:30 17:45 - 02:30 - 23:45 21:00 18:45
Minimum _ 1,3 C 33 % 1000,2 hPa - 0,0 km/h - -6,0 C -4,2 C 0,0 km/h
Max-Datum _ 04.04.12 03.04.12 08.04.12 05.04.12 08.04.12 - 05.04.12 04.04.12 07.04.12
_ Max-Zeit 16:15 06:15 23:30 17:15 17:15 - 17:15 16:15 18:15
Maximum _ 21,9 C 82 % 1014,9 hPa 1,8 l/m 18,0 km/h
N
- 10,0 C 21,9 C 40,2 km/h
N
Durchschnitt _ 9,4 C 65 % 1007,2 hPa #3,1 l/m 4,6 km/h N 2,8 C 8,5 C 12,2 km/h